Aviation Digital Data Service (ADDS)

Output produced by METARs form (1347 UTC 01 August 2015)
found at http://www.aviationweather.gov/adds/metars/
 
METAR text: KCMI 011253Z 32003KT 10SM CLR 21/17 A3005 RMK AO2 SLP172 T02060167
Conditions at: KCMI (CHAMPAIGN/URBANA, IL, US) observed 1253 UTC 01 August 2015
Temperature: 20.6°C (69°F)
Dewpoint: 16.7°C (62°F) [RH = 78%]
Pressure (altimeter): 30.05 inches Hg (1017.7 mb)
[Sea-level pressure: 1017.2 mb]
Winds: from the NW (320 degrees) at 3 MPH (3 knots; 1.6 m/s)
Visibility: 10 or more miles (16+ km)
Ceiling: at least 12,000 feet AGL
Clouds: sky clear below 12,000 feet AGL
Weather: no significant weather observed at this time

METAR text: KCMI 011153Z 00000KT 10SM CLR 16/14 A3005 RMK AO2 SLP170 T01610144 10189 20144 53005
Conditions at: KCMI (CHAMPAIGN/URBANA, IL, US) observed 1153 UTC 01 August 2015
Temperature: 16.1°C (61°F)
Dewpoint: 14.4°C (58°F) [RH = 90%]
Pressure (altimeter): 30.05 inches Hg (1017.7 mb)
[Sea-level pressure: 1017.0 mb]
Winds: calm
Visibility: 10 or more miles (16+ km)
Ceiling: at least 12,000 feet AGL
Clouds: sky clear below 12,000 feet AGL
Weather: no significant weather observed at this time

Forecast for: KCMI (CHAMPAIGN/URBANA, IL, US)
Text: KCMI 011125Z 0112/0212 VRB05KT P6SM SKC
Forecast period: 1200 to 2200 UTC 01 August 2015
Forecast type: FROM: standard forecast or significant change
Winds: variable direction winds at 6 MPH (5 knots; 2.6 m/s)
Visibility: 6 or more miles (10+ km)
Clouds: clear skies
Weather: no significant weather forecast for this period
Text: FM012200 24006KT P6SM SKC
Forecast period: 2200 UTC 01 August 2015 to 0300 UTC 02 August 2015
Forecast type: FROM: standard forecast or significant change
Winds: from the WSW (240 degrees) at 7 MPH (6 knots; 3.1 m/s)
Visibility: 6 or more miles (10+ km)
Clouds: clear skies
Weather: no significant weather forecast for this period
Text: FM020300 21005KT P6SM SCT250
Forecast period: 0300 to 1100 UTC 02 August 2015
Forecast type: FROM: standard forecast or significant change
Winds: from the SSW (210 degrees) at 6 MPH (5 knots; 2.6 m/s)
Visibility: 6 or more miles (10+ km)
Clouds: scattered clouds at 25000 feet AGL
Weather: no significant weather forecast for this period
Text: FM021100 20005KT P6SM BKN150
Forecast period: 1100 to 1200 UTC 02 August 2015
Forecast type: FROM: standard forecast or significant change
Winds: from the SSW (200 degrees) at 6 MPH (5 knots; 2.6 m/s)
Visibility: 6 or more miles (10+ km)
Ceiling: 15000 feet AGL
Clouds: broken clouds at 15000 feet AGL
Weather: no significant weather forecast for this period